createdAt,value
2018-03-18T00:00:18.253Z,0
2018-03-18T00:01:27.077Z,0
2018-03-18T00:02:36.051Z,0
2018-03-18T00:03:44.976Z,0
2018-03-18T00:04:53.797Z,0
2018-03-18T00:06:02.618Z,0
2018-03-18T00:07:11.443Z,0
2018-03-18T00:08:20.848Z,0
2018-03-18T00:09:29.699Z,0
2018-03-18T00:10:38.495Z,0
2018-03-18T00:11:47.589Z,0
2018-03-18T00:12:56.418Z,0
2018-03-18T00:14:05.237Z,0
2018-03-18T00:15:14.062Z,0
2018-03-18T00:16:22.884Z,0
2018-03-18T00:17:31.710Z,0
2018-03-18T00:18:40.533Z,0
2018-03-18T00:19:49.406Z,0
2018-03-18T00:20:58.230Z,0
2018-03-18T00:22:07.326Z,0
2018-03-18T00:23:16.152Z,0
2018-03-18T00:24:24.972Z,0
2018-03-18T00:25:33.845Z,0
2018-03-18T00:26:42.946Z,0
2018-03-18T00:27:51.770Z,0
2018-03-18T00:29:00.592Z,0
2018-03-18T00:30:09.414Z,0
2018-03-18T00:31:18.237Z,0
2018-03-18T00:32:27.060Z,0
2018-03-18T00:33:35.884Z,0
2018-03-18T00:34:44.708Z,0
2018-03-18T00:35:53.531Z,0
2018-03-18T00:37:02.457Z,0
2018-03-18T00:38:11.556Z,0
2018-03-18T00:39:20.379Z,0
2018-03-18T00:40:29.201Z,0
2018-03-18T00:41:38.031Z,0
2018-03-18T00:42:47.107Z,0
2018-03-18T00:43:56.206Z,0
2018-03-18T00:45:05.028Z,0
2018-03-18T00:46:13.852Z,0
2018-03-18T00:47:22.674Z,0
2018-03-18T00:48:31.597Z,0
2018-03-18T00:49:40.423Z,0
2018-03-18T00:50:49.245Z,0
2018-03-18T00:51:58.070Z,0
2018-03-18T00:53:06.891Z,0
2018-03-18T00:54:15.864Z,0
2018-03-18T00:55:24.688Z,0
2018-03-18T00:56:33.513Z,0
2018-03-18T00:57:42.337Z,0
2018-03-18T00:58:51.438Z,0
2018-03-18T01:00:00.366Z,0
2018-03-18T01:01:09.190Z,0
2018-03-18T01:02:18.019Z,0
2018-03-18T01:03:26.844Z,0
2018-03-18T01:04:35.670Z,0
2018-03-18T01:05:44.743Z,0
2018-03-18T01:06:53.566Z,0
2018-03-18T01:08:02.390Z,0
2018-03-18T01:09:11.210Z,0
2018-03-18T01:10:20.031Z,0
2018-03-18T01:11:28.854Z,0
2018-03-18T01:12:37.677Z,0
2018-03-18T01:13:46.497Z,0
2018-03-18T01:14:55.321Z,0
2018-03-18T01:16:04.144Z,0
2018-03-18T01:17:13.253Z,0
2018-03-18T01:18:22.361Z,0
2018-03-18T01:19:31.186Z,0
2018-03-18T01:20:40.009Z,0
2018-03-18T01:21:48.833Z,0
2018-03-18T01:22:57.704Z,0
2018-03-18T01:24:06.531Z,0
2018-03-18T01:25:15.351Z,0
2018-03-18T01:26:24.450Z,0
2018-03-18T01:27:33.273Z,0
2018-03-18T01:28:42.147Z,0
2018-03-18T01:29:50.972Z,0
2018-03-18T01:30:59.791Z,0
2018-03-18T01:32:08.898Z,0
2018-03-18T01:33:17.716Z,0
2018-03-18T01:34:26.540Z,0
2018-03-18T01:35:35.649Z,0
2018-03-18T01:36:44.466Z,0
2018-03-18T01:37:53.291Z,0
2018-03-18T01:39:02.114Z,0
2018-03-18T01:40:11.036Z,0
2018-03-18T01:41:20.137Z,0
2018-03-18T01:42:28.962Z,0
2018-03-18T01:43:37.784Z,0
2018-03-18T01:44:46.607Z,0
2018-03-18T01:45:55.481Z,0
2018-03-18T01:47:04.303Z,0
2018-03-18T01:48:13.126Z,0
2018-03-18T01:49:21.949Z,0
2018-03-18T01:50:30.770Z,0
2018-03-18T01:52:11.904Z,0
2018-03-18T01:53:20.726Z,0
2018-03-18T01:54:29.549Z,0
2018-03-18T01:55:38.371Z,0
2018-03-18T01:56:47.801Z,0
2018-03-18T01:57:56.619Z,0
2018-03-18T01:59:05.442Z,0
2018-03-18T02:00:14.265Z,0
2018-03-18T02:01:23.367Z,0
2018-03-18T02:02:32.291Z,0
2018-03-18T02:03:41.391Z,0
2018-03-18T02:04:50.215Z,0
2018-03-18T02:05:59.040Z,0
2018-03-18T02:07:07.871Z,0
2018-03-18T02:08:16.695Z,0
2018-03-18T02:09:25.792Z,0
2018-03-18T02:10:34.616Z,0
2018-03-18T02:11:43.437Z,0
2018-03-18T02:12:52.538Z,0
2018-03-18T02:14:01.461Z,0
2018-03-18T02:15:10.282Z,0
2018-03-18T02:16:19.106Z,0
2018-03-18T02:17:28.211Z,0
2018-03-18T02:18:37.031Z,0
2018-03-18T02:19:45.851Z,0
2018-03-18T02:20:54.678Z,0
2018-03-18T02:22:03.507Z,0
2018-03-18T02:23:12.602Z,0
2018-03-18T02:24:21.422Z,0
2018-03-18T02:25:30.547Z,0
2018-03-18T02:26:39.373Z,0
2018-03-18T02:27:48.194Z,0
2018-03-18T02:28:57.021Z,0
2018-03-18T02:30:05.844Z,0
2018-03-18T02:31:15.261Z,0
2018-03-18T02:32:24.083Z,0
2018-03-18T02:33:32.909Z,0
2018-03-18T02:34:42.035Z,0
2018-03-18T02:35:50.856Z,0
2018-03-18T02:37:00.108Z,0
2018-03-18T02:38:08.934Z,0
2018-03-18T02:39:17.757Z,0
2018-03-18T02:40:26.579Z,0
2018-03-18T02:41:35.403Z,0
2018-03-18T02:42:44.330Z,0
2018-03-18T02:43:53.152Z,0
2018-03-18T02:45:02.256Z,0
2018-03-18T02:46:11.078Z,0
2018-03-18T02:47:19.907Z,0
2018-03-18T02:48:28.776Z,0
2018-03-18T02:49:37.597Z,0
2018-03-18T02:50:46.422Z,0
2018-03-18T02:51:55.244Z,0
2018-03-18T02:53:04.066Z,0
2018-03-18T02:54:12.890Z,0
2018-03-18T02:55:21.712Z,0
2018-03-18T02:56:30.815Z,0
2018-03-18T02:57:39.926Z,0
2018-03-18T02:58:48.736Z,0
2018-03-18T02:59:57.658Z,0
2018-03-18T03:01:06.758Z,0
2018-03-18T03:02:15.579Z,0
2018-03-18T03:03:24.682Z,0
2018-03-18T03:04:33.505Z,0
2018-03-18T03:05:42.657Z,0
2018-03-18T03:06:51.481Z,0
2018-03-18T03:08:00.312Z,0
2018-03-18T03:09:09.133Z,0
2018-03-18T03:10:17.955Z,0
2018-03-18T03:11:27.128Z,0
2018-03-18T03:12:35.957Z,0
2018-03-18T03:13:45.058Z,0
2018-03-18T03:14:53.879Z,0
2018-03-18T03:16:02.700Z,0
2018-03-18T03:17:11.622Z,0
2018-03-18T03:18:20.719Z,0
2018-03-18T03:19:29.538Z,0
2018-03-18T03:20:38.364Z,0
2018-03-18T03:21:47.737Z,0
2018-03-18T03:22:56.884Z,0
2018-03-18T03:24:05.978Z,0
2018-03-18T03:25:14.802Z,0
2018-03-18T03:26:23.624Z,0
2018-03-18T03:27:32.447Z,0
2018-03-18T03:28:41.417Z,0
2018-03-18T03:29:50.245Z,0
2018-03-18T03:30:59.112Z,0
2018-03-18T03:32:08.227Z,0
2018-03-18T03:33:17.332Z,0
2018-03-18T03:34:26.152Z,0
2018-03-18T03:35:34.976Z,0
2018-03-18T03:36:43.796Z,0
2018-03-18T03:37:52.617Z,0
2018-03-18T03:39:01.995Z,0
2018-03-18T03:40:11.394Z,0
2018-03-18T03:41:20.217Z,0
2018-03-18T03:42:29.038Z,0
2018-03-18T03:43:37.861Z,0
2018-03-18T03:44:46.732Z,0
2018-03-18T03:45:55.603Z,0
2018-03-18T03:47:04.425Z,0
2018-03-18T03:48:13.397Z,0
2018-03-18T03:49:22.221Z,0
2018-03-18T03:50:31.316Z,0
2018-03-18T03:51:40.140Z,0
2018-03-18T03:52:48.960Z,0
2018-03-18T03:53:58.055Z,0
2018-03-18T03:55:06.876Z,0
2018-03-18T03:56:15.698Z,0
2018-03-18T03:57:24.621Z,0
2018-03-18T03:58:33.442Z,0
2018-03-18T03:59:42.265Z,0
2018-03-18T04:00:51.088Z,0
2018-03-18T04:01:59.910Z,0
2018-03-18T04:03:08.881Z,0
2018-03-18T04:04:17.703Z,0
2018-03-18T04:05:26.524Z,0
2018-03-18T04:06:35.348Z,0
2018-03-18T04:07:44.448Z,0
2018-03-18T04:08:53.268Z,0
2018-03-18T04:10:02.366Z,0
2018-03-18T04:11:11.467Z,0
2018-03-18T04:12:20.289Z,0
2018-03-18T04:13:29.111Z,0
2018-03-18T04:14:37.933Z,0
2018-03-18T04:15:47.034Z,0
2018-03-18T04:16:55.854Z,0
2018-03-18T04:18:04.678Z,0
2018-03-18T04:19:13.504Z,0
2018-03-18T04:20:22.753Z,0
2018-03-18T04:21:31.574Z,0
2018-03-18T04:22:40.447Z,0
2018-03-18T04:23:49.547Z,0
2018-03-18T04:24:58.370Z,0
2018-03-18T04:26:07.191Z,0
2018-03-18T04:27:16.014Z,0
2018-03-18T04:28:24.839Z,0
2018-03-18T04:29:33.935Z,0
2018-03-18T04:30:42.761Z,0
2018-03-18T04:31:51.579Z,0
2018-03-18T04:33:00.400Z,0
2018-03-18T04:34:09.220Z,0
2018-03-18T04:35:18.045Z,0
2018-03-18T04:36:26.865Z,0
2018-03-18T04:37:35.687Z,0
2018-03-18T04:38:44.511Z,0
2018-03-18T04:39:53.331Z,0
2018-03-18T04:41:02.153Z,0
2018-03-18T04:42:10.974Z,0
2018-03-18T04:43:19.796Z,0
2018-03-18T04:44:28.617Z,0
2018-03-18T04:45:37.440Z,0
2018-03-18T04:46:46.262Z,0
2018-03-18T04:47:55.088Z,0
2018-03-18T04:49:03.907Z,0
2018-03-18T04:50:12.732Z,0
2018-03-18T04:51:21.549Z,0
2018-03-18T04:52:30.370Z,0
2018-03-18T04:53:39.193Z,0
2018-03-18T04:54:48.367Z,0
2018-03-18T04:55:57.187Z,0
2018-03-18T04:57:06.009Z,0
2018-03-18T04:58:14.832Z,0
2018-03-18T04:59:23.932Z,0
2018-03-18T05:00:32.907Z,0
2018-03-18T05:01:41.727Z,0
2018-03-18T05:02:50.825Z,0
2018-03-18T05:03:59.650Z,0
2018-03-18T05:05:08.470Z,0
2018-03-18T05:06:17.341Z,0
2018-03-18T05:07:26.165Z,0
2018-03-18T05:08:35.270Z,0
2018-03-18T05:09:44.369Z,0
2018-03-18T05:10:53.190Z,0
2018-03-18T05:12:02.012Z,0
2018-03-18T05:13:11.110Z,0
2018-03-18T05:14:19.935Z,0
2018-03-18T05:15:28.762Z,0
2018-03-18T05:16:37.583Z,0
2018-03-18T05:17:46.455Z,0
2018-03-18T05:18:55.551Z,0
2018-03-18T05:20:04.373Z,0
2018-03-18T05:21:13.195Z,0
2018-03-18T05:22:22.024Z,0
2018-03-18T05:23:30.945Z,0
2018-03-18T05:24:39.761Z,0
2018-03-18T05:25:48.585Z,5
2018-03-18T05:26:57.410Z,5
2018-03-18T05:28:06.231Z,5
2018-03-18T05:29:15.202Z,5
2018-03-18T05:30:24.024Z,5
2018-03-18T05:31:33.396Z,5
2018-03-18T05:32:42.217Z,10
2018-03-18T05:33:51.038Z,10
2018-03-18T05:35:00.335Z,10
2018-03-18T05:36:09.157Z,10
2018-03-18T05:37:17.978Z,15
2018-03-18T05:38:26.796Z,15
2018-03-18T05:39:35.619Z,15
2018-03-18T05:40:44.441Z,15
2018-03-18T05:41:53.536Z,20
2018-03-18T05:43:02.363Z,20
2018-03-18T05:44:11.182Z,20
2018-03-18T05:45:20.004Z,25
2018-03-18T05:46:29.578Z,25
2018-03-18T05:47:38.410Z,25
2018-03-18T05:48:47.219Z,30
2018-03-18T05:49:56.044Z,30
2018-03-18T05:51:04.863Z,35
2018-03-18T05:52:13.783Z,35
2018-03-18T05:53:22.880Z,35
2018-03-18T05:54:31.705Z,40
2018-03-18T05:55:40.525Z,40
2018-03-18T05:56:49.348Z,40
2018-03-18T05:57:58.218Z,45
2018-03-18T05:59:07.039Z,45
2018-03-18T06:00:15.860Z,50
2018-03-18T06:01:24.683Z,50
2018-03-18T06:02:33.503Z,50
2018-03-18T06:03:42.375Z,55
2018-03-18T06:04:51.210Z,55
2018-03-18T06:06:00.020Z,55
2018-03-18T06:07:08.840Z,60
2018-03-18T06:08:17.764Z,60
2018-03-18T06:09:26.786Z,65
2018-03-18T06:10:35.612Z,65
2018-03-18T06:11:44.435Z,65
2018-03-18T06:12:53.257Z,70
2018-03-18T06:14:02.081Z,70
2018-03-18T06:15:11.150Z,70
2018-03-18T06:16:20.246Z,75
2018-03-18T06:17:29.353Z,75
2018-03-18T06:18:38.174Z,75
2018-03-18T06:19:47.278Z,80
2018-03-18T06:20:56.525Z,80
2018-03-18T06:22:05.349Z,80
2018-03-18T06:23:14.173Z,85
2018-03-18T06:24:23.271Z,85
2018-03-18T06:25:32.092Z,85
2018-03-18T06:26:41.015Z,90
2018-03-18T06:27:49.838Z,90
2018-03-18T06:28:58.660Z,90
2018-03-18T06:30:07.754Z,95
2018-03-18T06:31:16.574Z,95
2018-03-18T06:32:25.402Z,95
2018-03-18T06:33:34.217Z,95
2018-03-18T06:34:43.039Z,100
2018-03-18T06:35:51.863Z,100
2018-03-18T06:37:00.684Z,100
2018-03-18T06:38:09.503Z,100
2018-03-18T06:39:18.601Z,105
2018-03-18T06:40:27.420Z,105
2018-03-18T06:41:36.246Z,105
2018-03-18T06:42:45.348Z,105
2018-03-18T06:43:54.168Z,110
2018-03-18T06:45:02.999Z,110
2018-03-18T06:46:12.102Z,110
2018-03-18T06:47:20.925Z,110
2018-03-18T06:48:29.747Z,115
2018-03-18T06:49:38.766Z,115
2018-03-18T06:50:47.870Z,115
2018-03-18T06:51:56.687Z,115
2018-03-18T06:53:05.511Z,115
2018-03-18T06:54:14.626Z,120
2018-03-18T06:55:24.099Z,120
2018-03-18T06:56:32.919Z,120
2018-03-18T06:57:41.742Z,120
2018-03-18T06:58:50.569Z,120
2018-03-18T06:59:59.669Z,120
2018-03-18T07:01:09.170Z,125
2018-03-18T07:02:18.269Z,125
2018-03-18T07:03:27.368Z,125
2018-03-18T07:04:36.188Z,125
2018-03-18T07:05:45.014Z,125
2018-03-18T07:06:53.886Z,125
2018-03-18T07:08:02.707Z,130
2018-03-18T07:09:11.530Z,130
2018-03-18T07:10:20.353Z,130
2018-03-18T07:11:29.176Z,130
2018-03-18T07:12:38.428Z,130
2018-03-18T07:13:47.251Z,130
2018-03-18T07:14:56.075Z,135
2018-03-18T07:16:04.899Z,135
2018-03-18T07:17:13.720Z,135
2018-03-18T07:18:22.707Z,135
2018-03-18T07:19:31.520Z,135
2018-03-18T07:20:40.343Z,135
2018-03-18T07:21:49.162Z,135
2018-03-18T07:22:58.267Z,135
2018-03-18T07:24:07.146Z,140
2018-03-18T07:25:15.968Z,140
2018-03-18T07:26:24.790Z,140
2018-03-18T07:27:33.614Z,140
2018-03-18T07:28:42.435Z,140
2018-03-18T07:29:51.258Z,140
2018-03-18T07:31:00.082Z,140
2018-03-18T07:32:08.903Z,140
2018-03-18T07:33:18.038Z,140
2018-03-18T07:34:26.858Z,145
2018-03-18T07:35:35.729Z,145
2018-03-18T07:36:44.553Z,145
2018-03-18T07:37:53.375Z,145
2018-03-18T07:39:02.197Z,145
2018-03-18T07:40:11.022Z,145
2018-03-18T07:41:20.145Z,145
2018-03-18T07:42:28.970Z,145
2018-03-18T07:43:37.794Z,145
2018-03-18T07:44:46.614Z,150
2018-03-18T07:45:55.439Z,150
2018-03-18T07:47:04.790Z,150
2018-03-18T07:48:13.612Z,150
2018-03-18T07:49:22.713Z,150
2018-03-18T07:50:31.551Z,150
2018-03-18T07:51:40.357Z,150
2018-03-18T07:52:49.233Z,150
2018-03-18T07:53:58.055Z,150
2018-03-18T07:55:06.881Z,150
2018-03-18T07:56:15.990Z,155
2018-03-18T07:57:24.799Z,155
2018-03-18T07:58:33.927Z,155
2018-03-18T07:59:43.032Z,155
2018-03-18T08:00:51.856Z,155
2018-03-18T08:02:01.029Z,155
2018-03-18T08:03:09.817Z,155
2018-03-18T08:04:18.748Z,155
2018-03-18T08:05:27.570Z,155
2018-03-18T08:06:36.393Z,155
2018-03-18T08:07:45.219Z,155
2018-03-18T08:08:54.044Z,155
2018-03-18T08:10:02.871Z,155
2018-03-18T08:11:11.976Z,155
2018-03-18T08:12:20.800Z,155
2018-03-18T08:13:29.622Z,155
2018-03-18T08:14:38.446Z,155
2018-03-18T08:15:47.853Z,155
2018-03-18T08:16:56.675Z,155
2018-03-18T08:18:05.501Z,155
2018-03-18T08:19:14.325Z,155
2018-03-18T08:20:23.151Z,155
2018-03-18T08:21:32.025Z,155
2018-03-18T08:22:40.848Z,155
2018-03-18T08:23:49.672Z,160
2018-03-18T08:24:58.497Z,160
2018-03-18T08:26:07.324Z,160
2018-03-18T08:27:16.194Z,160
2018-03-18T08:28:25.018Z,165
2018-03-18T08:29:33.843Z,160
2018-03-18T08:30:42.667Z,160
2018-03-18T08:31:51.492Z,160
2018-03-18T08:33:00.317Z,160
2018-03-18T08:34:09.140Z,165
2018-03-18T08:35:17.970Z,165
2018-03-18T08:36:26.800Z,165
2018-03-18T08:37:35.618Z,165
2018-03-18T08:38:44.589Z,165
2018-03-18T08:39:53.412Z,165
2018-03-18T08:41:02.236Z,165
2018-03-18T08:42:11.338Z,165
2018-03-18T08:43:20.160Z,165
2018-03-18T08:44:29.040Z,170
2018-03-18T08:45:38.137Z,170
2018-03-18T08:46:46.989Z,170
2018-03-18T08:47:55.797Z,170
2018-03-18T08:49:04.892Z,170
2018-03-18T08:50:13.916Z,170
2018-03-18T08:51:22.741Z,170
2018-03-18T08:52:31.564Z,170
2018-03-18T08:53:40.388Z,170
2018-03-18T08:54:49.218Z,175
2018-03-18T08:55:58.475Z,175
2018-03-18T08:57:07.301Z,175
2018-03-18T08:58:16.124Z,175
2018-03-18T08:59:24.955Z,175
2018-03-18T09:00:33.778Z,175
2018-03-18T09:01:42.645Z,175
2018-03-18T09:02:51.746Z,175
2018-03-18T09:04:00.575Z,175
2018-03-18T09:05:09.401Z,175
2018-03-18T09:06:18.226Z,180
2018-03-18T09:07:27.300Z,180
2018-03-18T09:08:36.124Z,180
2018-03-18T09:09:44.948Z,180
2018-03-18T09:10:54.056Z,180
2018-03-18T09:12:02.878Z,180
2018-03-18T09:13:11.799Z,180
2018-03-18T09:14:20.628Z,180
2018-03-18T09:15:29.452Z,180
2018-03-18T09:16:38.277Z,180
2018-03-18T09:17:47.110Z,180
2018-03-18T09:18:55.975Z,185
2018-03-18T09:20:05.078Z,185
2018-03-18T09:21:13.902Z,185
2018-03-18T09:22:22.727Z,185
2018-03-18T09:23:31.551Z,185
2018-03-18T09:24:40.426Z,185
2018-03-18T09:25:49.530Z,185
2018-03-18T09:26:58.359Z,185
2018-03-18T09:28:07.187Z,185
2018-03-18T09:29:16.011Z,185
2018-03-18T09:30:24.836Z,185
2018-03-18T09:31:33.662Z,190
2018-03-18T09:32:42.490Z,190
2018-03-18T09:33:51.314Z,190
2018-03-18T09:35:00.141Z,190
2018-03-18T09:36:09.216Z,190
2018-03-18T09:37:18.045Z,190
2018-03-18T09:38:26.869Z,190
2018-03-18T09:39:35.695Z,190
2018-03-18T09:40:44.520Z,190
2018-03-18T09:41:53.446Z,190
2018-03-18T09:43:02.272Z,190
2018-03-18T09:44:11.370Z,190
2018-03-18T09:45:20.203Z,190
2018-03-18T09:46:29.318Z,190
2018-03-18T09:47:38.244Z,190
2018-03-18T09:48:47.096Z,190
2018-03-18T09:49:55.897Z,190
2018-03-18T09:51:04.725Z,190
2018-03-18T09:52:13.548Z,195
2018-03-18T09:53:22.523Z,195
2018-03-18T09:54:31.347Z,195
2018-03-18T09:55:40.188Z,190
2018-03-18T09:56:49.001Z,195
2018-03-18T09:57:57.825Z,195
2018-03-18T09:59:06.900Z,195
2018-03-18T10:00:15.726Z,195
2018-03-18T10:01:24.552Z,195
2018-03-18T10:02:33.382Z,195
2018-03-18T10:03:42.206Z,195
2018-03-18T10:04:51.414Z,195
2018-03-18T10:06:00.239Z,195
2018-03-18T10:07:09.063Z,195
2018-03-18T10:08:17.902Z,195
2018-03-18T10:09:26.713Z,195
2018-03-18T10:10:35.641Z,195
2018-03-18T10:11:44.746Z,195
2018-03-18T10:12:53.569Z,195
2018-03-18T10:14:02.451Z,200
2018-03-18T10:15:11.227Z,200
2018-03-18T10:16:20.487Z,200
2018-03-18T10:17:29.304Z,200
2018-03-18T10:18:38.127Z,200
2018-03-18T10:19:46.954Z,200
2018-03-18T10:20:55.778Z,200
2018-03-18T10:22:04.657Z,205
2018-03-18T10:23:13.478Z,205
2018-03-18T10:24:22.304Z,205
2018-03-18T10:25:31.129Z,205
2018-03-18T10:26:39.961Z,205
2018-03-18T10:27:48.783Z,205
2018-03-18T10:28:57.609Z,205
2018-03-18T10:30:06.435Z,210
2018-03-18T10:31:15.608Z,210
2018-03-18T10:32:24.716Z,210
2018-03-18T10:33:33.947Z,210
2018-03-18T10:34:42.775Z,210
2018-03-18T10:35:51.602Z,210
2018-03-18T10:37:00.438Z,210
2018-03-18T10:38:09.258Z,210
2018-03-18T10:39:18.087Z,210
2018-03-18T10:40:26.912Z,210
2018-03-18T10:41:36.016Z,210
2018-03-18T10:42:44.843Z,215
2018-03-18T10:43:53.671Z,215
2018-03-18T10:45:02.848Z,215
2018-03-18T10:46:11.675Z,215
2018-03-18T10:47:20.777Z,215
2018-03-18T10:48:29.605Z,215
2018-03-18T10:49:38.430Z,215
2018-03-18T10:50:47.266Z,215
2018-03-18T10:51:56.095Z,215
2018-03-18T10:53:04.924Z,215
2018-03-18T10:54:13.749Z,215
2018-03-18T10:55:22.581Z,220
2018-03-18T10:56:31.499Z,220
2018-03-18T10:57:40.326Z,220
2018-03-18T10:58:49.203Z,220
2018-03-18T10:59:58.030Z,220
2018-03-18T11:01:06.857Z,225
2018-03-18T11:02:15.880Z,225
2018-03-18T11:03:24.661Z,220
2018-03-18T11:04:33.487Z,220
2018-03-18T11:05:42.313Z,220
2018-03-18T11:06:51.149Z,225
2018-03-18T11:07:59.972Z,225
2018-03-18T11:09:08.798Z,225
2018-03-18T11:10:17.625Z,225
2018-03-18T11:11:26.452Z,225
2018-03-18T11:12:35.282Z,225
2018-03-18T11:13:44.536Z,225
2018-03-18T11:14:53.363Z,230
2018-03-18T11:16:02.245Z,230
2018-03-18T11:17:11.021Z,230
2018-03-18T11:18:19.848Z,230
2018-03-18T11:19:28.826Z,230
2018-03-18T11:20:37.652Z,230
2018-03-18T11:21:46.479Z,230
2018-03-18T11:22:55.305Z,230
2018-03-18T11:24:04.136Z,230
2018-03-18T11:25:13.016Z,235
2018-03-18T11:26:21.840Z,235
2018-03-18T11:27:30.672Z,235
2018-03-18T11:28:39.497Z,235
2018-03-18T11:29:48.325Z,235
2018-03-18T11:30:57.251Z,235
2018-03-18T11:32:06.078Z,235
2018-03-18T11:33:14.905Z,235
2018-03-18T11:34:23.733Z,240
2018-03-18T11:35:32.564Z,240
2018-03-18T11:36:41.444Z,240
2018-03-18T11:37:50.269Z,240
2018-03-18T11:38:59.097Z,240
2018-03-18T11:40:07.924Z,240
2018-03-18T11:41:17.026Z,240
2018-03-18T11:42:26.005Z,245
2018-03-18T11:43:34.839Z,245
2018-03-18T11:44:43.665Z,245
2018-03-18T11:45:52.495Z,245
2018-03-18T11:47:01.600Z,245
2018-03-18T11:48:10.580Z,245
2018-03-18T11:49:19.408Z,245
2018-03-18T11:50:28.245Z,250
2018-03-18T11:51:37.352Z,250
2018-03-18T11:52:46.181Z,250
2018-03-18T11:53:55.057Z,250
2018-03-18T11:55:04.166Z,255
2018-03-18T11:56:13.269Z,255
2018-03-18T11:57:22.096Z,255
2018-03-18T11:58:31.209Z,255
2018-03-18T11:59:40.087Z,260
2018-03-18T12:00:48.912Z,260
2018-03-18T12:01:57.740Z,265
2018-03-18T12:03:06.569Z,265
2018-03-18T12:04:15.673Z,280
2018-03-18T12:05:24.931Z,930
2018-03-18T12:06:33.758Z,1775
2018-03-18T12:07:42.594Z,1725
2018-03-18T12:08:51.419Z,1590
2018-03-18T12:10:00.248Z,1770
2018-03-18T12:11:09.129Z,2035
2018-03-18T12:12:17.955Z,2005
2018-03-18T12:13:27.339Z,2170
2018-03-18T12:14:36.167Z,1945
2018-03-18T12:15:44.999Z,1855
2018-03-18T12:16:53.833Z,2065
2018-03-18T12:18:02.668Z,2030
2018-03-18T12:19:11.775Z,2290
2018-03-18T12:20:20.606Z,1865
2018-03-18T12:21:29.437Z,1940
2018-03-18T12:22:38.371Z,2020
2018-03-18T12:23:47.212Z,1580
2018-03-18T12:24:56.048Z,1900
2018-03-18T12:26:04.881Z,1860
2018-03-18T12:27:13.718Z,1700
2018-03-18T12:28:22.803Z,1685
2018-03-18T12:29:31.646Z,1665
2018-03-18T12:30:40.481Z,1460
2018-03-18T12:31:49.598Z,1125
2018-03-18T12:32:58.437Z,1040
2018-03-18T12:34:07.423Z,655
2018-03-18T12:35:16.257Z,885
2018-03-18T12:36:25.090Z,1950
2018-03-18T12:37:33.927Z,1355
2018-03-18T12:38:42.767Z,1120
2018-03-18T12:39:51.652Z,890
2018-03-18T12:41:00.765Z,1060
2018-03-18T12:42:09.600Z,760
2018-03-18T12:43:18.436Z,665
2018-03-18T12:44:27.273Z,1175
2018-03-18T12:45:36.211Z,1030
2018-03-18T12:46:45.331Z,1195
2018-03-18T12:47:54.441Z,1225
2018-03-18T12:49:03.276Z,1445
2018-03-18T12:50:12.112Z,1345
2018-03-18T12:51:20.950Z,1560
2018-03-18T12:52:29.794Z,1835
2018-03-18T12:53:38.626Z,2075
2018-03-18T12:54:47.465Z,1735
2018-03-18T12:55:56.307Z,1950
2018-03-18T12:57:05.194Z,1530
2018-03-18T12:58:14.030Z,835
2018-03-18T12:59:22.870Z,1115
2018-03-18T13:00:31.708Z,1470
2018-03-18T13:01:40.546Z,1905
2018-03-18T13:02:49.714Z,1985
2018-03-18T13:03:58.831Z,1790
2018-03-18T13:05:07.669Z,1325
2018-03-18T13:06:16.887Z,1080
2018-03-18T13:07:25.727Z,1245
2018-03-18T13:08:34.864Z,680
2018-03-18T13:09:43.990Z,720
2018-03-18T13:10:53.107Z,1315
2018-03-18T13:12:01.946Z,1305
2018-03-18T13:13:10.783Z,1525
2018-03-18T13:14:20.051Z,1015
2018-03-18T13:15:29.166Z,1115
2018-03-18T13:16:38.290Z,1075
2018-03-18T13:17:47.140Z,765
2018-03-18T13:18:55.986Z,940
2018-03-18T13:20:04.883Z,800
2018-03-18T13:21:13.731Z,1280
2018-03-18T13:22:22.582Z,895
2018-03-18T13:23:31.431Z,1400
2018-03-18T13:24:40.295Z,1965
2018-03-18T13:25:49.281Z,2230
2018-03-18T13:26:58.126Z,1210
2018-03-18T13:28:06.976Z,455
2018-03-18T13:29:15.810Z,370
2018-03-18T13:30:24.645Z,970
2018-03-18T13:31:33.480Z,1715
2018-03-18T13:32:42.374Z,1045
2018-03-18T13:33:51.212Z,810
2018-03-18T13:35:00.048Z,905
2018-03-18T13:36:08.883Z,850
2018-03-18T13:37:17.817Z,730
2018-03-18T13:38:26.652Z,640
2018-03-18T13:39:35.487Z,680
2018-03-18T13:40:44.327Z,1110
2018-03-18T13:41:53.160Z,775
2018-03-18T13:43:02.049Z,860
2018-03-18T13:44:10.887Z,955
2018-03-18T13:45:19.734Z,1100
2018-03-18T13:46:28.580Z,755
2018-03-18T13:47:37.418Z,625
2018-03-18T13:48:46.404Z,790
2018-03-18T13:49:55.317Z,1345
2018-03-18T13:51:04.153Z,1760
2018-03-18T13:52:12.987Z,1420
2018-03-18T13:53:21.823Z,1335
2018-03-18T13:54:30.924Z,1490
2018-03-18T13:55:39.753Z,2070
2018-03-18T13:56:48.586Z,2180
2018-03-18T13:57:57.426Z,1950
2018-03-18T13:59:06.543Z,1770
2018-03-18T14:00:15.680Z,1830
2018-03-18T14:01:24.574Z,1680
2018-03-18T14:02:33.356Z,1775
2018-03-18T14:03:42.199Z,1990
2018-03-18T14:04:51.310Z,2005
2018-03-18T14:06:00.197Z,2255
2018-03-18T14:07:09.109Z,2300
2018-03-18T14:08:17.952Z,2160
2018-03-18T14:09:26.797Z,2390
2018-03-18T14:10:35.644Z,2355
2018-03-18T14:11:44.641Z,1975
2018-03-18T14:12:53.505Z,1900
2018-03-18T14:14:02.347Z,1790
2018-03-18T14:15:11.188Z,1745
2018-03-18T14:16:20.032Z,2045
2018-03-18T14:17:28.975Z,2260
2018-03-18T14:18:37.821Z,2405
2018-03-18T14:19:46.662Z,2255
2018-03-18T14:20:55.502Z,2510
2018-03-18T14:22:04.343Z,2490
2018-03-18T14:23:13.284Z,2115
2018-03-18T14:24:22.142Z,2175
2018-03-18T14:25:30.979Z,2355
2018-03-18T14:26:39.833Z,2170
2018-03-18T14:27:48.679Z,1975
2018-03-18T14:28:57.523Z,2180
2018-03-18T14:30:06.367Z,2105
2018-03-18T14:31:15.210Z,2000
2018-03-18T14:32:24.051Z,2180
2018-03-18T14:33:32.895Z,2350
2018-03-18T14:34:41.735Z,2155
2018-03-18T14:35:50.575Z,2205
2018-03-18T14:36:59.439Z,2080
2018-03-18T14:38:08.282Z,1995
2018-03-18T14:39:17.129Z,1785
2018-03-18T14:40:26.272Z,1710
2018-03-18T14:41:35.136Z,1415
2018-03-18T14:42:44.261Z,1145
2018-03-18T14:43:53.439Z,1245
2018-03-18T14:45:02.278Z,1550
2018-03-18T14:46:11.069Z,1390
2018-03-18T14:47:19.945Z,1275
2018-03-18T14:48:28.848Z,1190
2018-03-18T14:49:37.971Z,1250
2018-03-18T14:50:47.091Z,1250
2018-03-18T14:51:55.957Z,1255
2018-03-18T14:53:04.818Z,1235
2018-03-18T14:54:13.747Z,1030
2018-03-18T14:55:22.625Z,1265
2018-03-18T14:56:31.514Z,1385
2018-03-18T14:57:40.347Z,1620
2018-03-18T14:58:49.189Z,1160
2018-03-18T14:59:58.189Z,930
2018-03-18T15:01:07.040Z,1140
2018-03-18T15:02:15.871Z,1350
2018-03-18T15:03:24.715Z,1475
2018-03-18T15:04:33.573Z,1475
2018-03-18T15:05:42.561Z,1370
2018-03-18T15:06:51.405Z,1000
2018-03-18T15:08:00.247Z,890
2018-03-18T15:09:09.378Z,830
2018-03-18T15:10:18.245Z,775
2018-03-18T15:11:27.160Z,655
2018-03-18T15:12:36.005Z,520
2018-03-18T15:13:44.865Z,450
2018-03-18T15:14:53.707Z,510
2018-03-18T15:16:02.545Z,715
2018-03-18T15:17:11.536Z,480
2018-03-18T15:18:20.693Z,855
2018-03-18T15:19:29.486Z,810
2018-03-18T15:20:38.321Z,585
2018-03-18T15:21:47.165Z,685
2018-03-18T15:22:56.051Z,850
2018-03-18T15:24:04.889Z,1045
2018-03-18T15:25:13.726Z,815
2018-03-18T15:26:22.563Z,785
2018-03-18T15:27:31.400Z,695
2018-03-18T15:28:40.234Z,525
2018-03-18T15:29:49.348Z,690
2018-03-18T15:30:58.469Z,665
2018-03-18T15:32:07.580Z,535
2018-03-18T15:33:16.439Z,565
2018-03-18T15:34:25.369Z,510
2018-03-18T15:35:34.216Z,825
2018-03-18T15:36:43.051Z,845
2018-03-18T15:37:51.885Z,670
2018-03-18T15:39:00.721Z,755
2018-03-18T15:40:10.127Z,900
2018-03-18T15:41:18.964Z,895
2018-03-18T15:42:27.799Z,995
2018-03-18T15:43:36.910Z,1280
2018-03-18T15:44:45.750Z,1470
2018-03-18T15:45:54.583Z,1215
2018-03-18T15:47:03.425Z,1385
2018-03-18T15:48:12.261Z,1020
2018-03-18T15:49:21.101Z,1390
2018-03-18T15:50:29.938Z,910
2018-03-18T15:51:39.076Z,955
2018-03-18T15:52:47.912Z,950
2018-03-18T15:53:56.749Z,1360
2018-03-18T15:55:05.869Z,1335
2018-03-18T15:56:14.711Z,1290
2018-03-18T15:57:23.551Z,1215
2018-03-18T15:58:32.390Z,960
2018-03-18T15:59:41.253Z,720
2018-03-18T16:00:50.075Z,690
2018-03-18T16:01:58.915Z,850
2018-03-18T16:03:07.954Z,860
2018-03-18T16:04:16.798Z,740
2018-03-18T16:05:25.641Z,720
2018-03-18T16:06:35.038Z,635
2018-03-18T16:07:43.872Z,835